Terminal Aerodrome Forecast
Issued by NWS

Home | Current Version | Previous Version | Text Only | Print | Product List | Glossary On
Versions: 1 2 3 4 5 6 7 8 9 10 11 12 13 14 15 16 17 18 19 20 21 22 23 24 25 26
000
FTUS44 KFWD 280800 AAA
TAFAFW
TAF AMD
KAFW 280858Z 2809/2906 19011KT P6SM SCT080
     FM281200 02010KT P6SM BKN070
     FM281700 03012KT P6SM VCSH BKN050
     FM282100 05008KT P6SM SCT100=

USA.gov is the U.S. government's official web portal to all federal, state and local government web resources and services.